createdAt,value
2019-02-24T00:00:48.382Z,9.73
2019-02-24T00:04:14.596Z,9.20
2019-02-24T00:07:40.238Z,9.38
2019-02-24T00:11:05.946Z,9.43
2019-02-24T00:14:31.706Z,9.32
2019-02-24T00:17:57.400Z,9.30
2019-02-24T00:21:23.073Z,9.32
2019-02-24T00:24:48.692Z,9.37
2019-02-24T00:28:14.400Z,9.48
2019-02-24T00:31:40.142Z,9.37
2019-02-24T00:35:05.843Z,9.36
2019-02-24T00:38:31.547Z,9.30
2019-02-24T00:41:57.516Z,9.40
2019-02-24T00:45:23.446Z,9.21
2019-02-24T00:48:49.113Z,9.40
2019-02-24T00:52:15.357Z,9.21
2019-02-24T00:55:41.090Z,9.19
2019-02-24T00:59:06.813Z,9.46
2019-02-24T01:02:32.422Z,9.36
2019-02-24T01:05:58.090Z,9.31
2019-02-24T01:09:24.160Z,9.05
2019-02-24T01:12:49.826Z,9.20
2019-02-24T01:16:15.479Z,9.08
2019-02-24T01:19:41.279Z,9.31
2019-02-24T01:23:06.885Z,9.33
2019-02-24T01:26:32.519Z,9.08
2019-02-24T01:29:58.230Z,9.08
2019-02-24T01:33:23.833Z,9.17
2019-02-24T01:36:49.649Z,9.14
2019-02-24T01:40:15.290Z,9.12
2019-02-24T01:43:41.192Z,9.22
2019-02-24T01:47:06.822Z,9.24
2019-02-24T01:50:32.463Z,9.34
2019-02-24T01:53:58.117Z,9.19
2019-02-24T01:57:23.749Z,9.02
2019-02-24T02:00:49.396Z,9.25
2019-02-24T02:04:15.107Z,9.06
2019-02-24T02:07:40.806Z,8.96
2019-02-24T02:11:06.508Z,9.06
2019-02-24T02:14:32.220Z,9.02
2019-02-24T02:17:57.853Z,9.18
2019-02-24T02:21:23.474Z,9.04
2019-02-24T02:24:49.106Z,9.04
2019-02-24T02:28:14.752Z,8.91
2019-02-24T02:31:40.408Z,9.01
2019-02-24T02:35:07.384Z,9.06
2019-02-24T02:38:33.008Z,8.95
2019-02-24T02:41:58.638Z,8.99
2019-02-24T02:45:24.241Z,8.99
2019-02-24T02:48:49.858Z,8.90
2019-02-24T02:52:15.505Z,9.10
2019-02-24T02:55:42.860Z,8.80
2019-02-24T02:59:08.475Z,8.83
2019-02-24T03:02:34.480Z,8.89
2019-02-24T03:06:10.989Z,8.85
2019-02-24T03:09:36.605Z,8.74
2019-02-24T03:13:02.209Z,8.60
2019-02-24T03:16:29.096Z,8.83
2019-02-24T03:19:54.678Z,8.75
2019-02-24T03:23:20.286Z,8.58
2019-02-24T03:26:46.227Z,8.70
2019-02-24T03:30:12.320Z,8.66
2019-02-24T03:33:38.094Z,8.67
2019-02-24T03:37:03.937Z,8.63
2019-02-24T03:40:29.594Z,8.44
2019-02-24T03:43:55.260Z,8.68
2019-02-24T03:47:21.233Z,8.59
2019-02-24T03:50:46.812Z,8.69
2019-02-24T03:54:12.453Z,8.48
2019-02-24T03:57:38.126Z,8.59
2019-02-24T04:01:03.789Z,8.54
2019-02-24T04:04:29.438Z,8.36
2019-02-24T04:07:55.053Z,8.49
2019-02-24T04:11:20.637Z,8.43
2019-02-24T04:14:46.631Z,8.38
2019-02-24T04:18:12.254Z,8.40
2019-02-24T04:21:37.883Z,8.26
2019-02-24T04:25:03.514Z,8.38
2019-02-24T04:28:29.111Z,8.46
2019-02-24T04:31:55.154Z,8.58
2019-02-24T04:35:20.883Z,8.51
2019-02-24T04:38:46.614Z,8.51
2019-02-24T04:42:12.733Z,8.36
2019-02-24T04:45:38.621Z,8.29
2019-02-24T04:49:04.175Z,8.34
2019-02-24T04:52:29.836Z,8.36
2019-02-24T04:55:55.781Z,8.34
2019-02-24T04:59:21.473Z,8.38
2019-02-24T05:02:47.094Z,8.47
2019-02-24T05:06:13.176Z,8.44
2019-02-24T05:09:38.842Z,8.40
2019-02-24T05:13:04.773Z,8.41
2019-02-24T05:16:30.402Z,8.33
2019-02-24T05:19:56.288Z,8.38
2019-02-24T05:23:21.874Z,8.29
2019-02-24T05:26:47.863Z,8.20
2019-02-24T05:30:13.553Z,8.07
2019-02-24T05:33:39.176Z,8.38
2019-02-24T05:37:04.823Z,8.33
2019-02-24T05:40:30.484Z,8.17
2019-02-24T05:43:56.148Z,8.04
2019-02-24T05:47:21.794Z,7.95
2019-02-24T05:50:47.449Z,7.90
2019-02-24T05:54:13.056Z,7.96
2019-02-24T05:57:38.665Z,8.01
2019-02-24T06:01:04.267Z,7.88
2019-02-24T06:04:29.857Z,7.84
2019-02-24T06:07:53.527Z,8.00
2019-02-24T06:11:16.395Z,7.76
2019-02-24T06:14:39.349Z,7.93
2019-02-24T06:18:04.746Z,7.83
2019-02-24T06:21:27.645Z,7.91
2019-02-24T06:29:30.048Z,7.78
2019-02-24T06:32:53.160Z,8.03
2019-02-24T06:36:16.569Z,7.97
2019-02-24T06:39:39.931Z,8.06
2019-02-24T06:43:02.948Z,8.17
2019-02-24T06:46:26.130Z,7.80
2019-02-24T06:49:49.424Z,8.19
2019-02-24T06:53:12.434Z,8.28
2019-02-24T06:56:35.466Z,8.03
2019-02-24T06:59:58.514Z,8.10
2019-02-24T07:03:21.679Z,8.07
2019-02-24T07:06:44.850Z,8.15
2019-02-24T07:10:07.898Z,8.28
2019-02-24T07:13:32.142Z,8.12
2019-02-24T07:16:55.784Z,8.35
2019-02-24T07:20:20.688Z,8.27
2019-02-24T07:23:44.317Z,8.22
2019-02-24T07:27:07.348Z,8.65
2019-02-24T07:30:30.606Z,8.58
2019-02-24T07:33:53.801Z,8.53
2019-02-24T07:37:17.548Z,8.66
2019-02-24T07:40:40.699Z,8.66
2019-02-24T07:44:09.332Z,8.70
2019-02-24T07:47:32.494Z,9.05
2019-02-24T07:50:55.642Z,9.10
2019-02-24T07:54:18.785Z,9.12
2019-02-24T07:57:55.096Z,9.14
2019-02-24T08:01:57.306Z,8.82
2019-02-24T08:09:31.217Z,9.43
2019-02-24T08:13:13.773Z,9.54
2019-02-24T08:17:09.562Z,9.63
2019-02-24T08:20:45.215Z,9.77
2019-02-24T08:24:20.471Z,9.86
2019-02-24T08:28:03.069Z,9.74
2019-02-24T08:31:39.188Z,9.96
2019-02-24T08:35:21.758Z,9.97
2019-02-24T08:38:57.592Z,9.93
2019-02-24T08:42:40.197Z,10.19
2019-02-24T08:46:15.848Z,10.24
2019-02-24T08:49:58.629Z,10.25
2019-02-24T08:53:34.396Z,10.27
2019-02-24T08:57:16.918Z,10.14
2019-02-24T09:00:52.185Z,10.50
2019-02-24T09:04:34.771Z,10.39
2019-02-24T09:08:10.828Z,10.39
2019-02-24T09:11:53.464Z,10.67
2019-02-24T09:15:29.539Z,10.79
2019-02-24T09:19:05.190Z,11.00
2019-02-24T09:22:40.502Z,11.01
2019-02-24T09:26:15.744Z,11.17
2019-02-24T09:29:38.912Z,11.24
2019-02-24T09:33:14.733Z,11.55
2019-02-24T09:36:57.362Z,11.59
2019-02-24T09:40:33.484Z,11.96
2019-02-24T09:44:16.443Z,12.05
2019-02-24T09:47:52.089Z,12.47
2019-02-24T09:51:34.850Z,13.57
2019-02-24T09:55:10.658Z,14.24
2019-02-24T09:58:53.552Z,15.96
2019-02-24T10:02:29.468Z,18.76
2019-02-24T10:05:53.161Z,21.85
2019-02-24T10:09:29.030Z,22.89
2019-02-24T10:13:12.007Z,22.96
2019-02-24T10:16:35.332Z,23.17
2019-02-24T10:20:10.931Z,22.03
2019-02-24T10:23:53.503Z,23.09
2019-02-24T10:27:28.837Z,23.41
2019-02-24T10:31:19.615Z,24.99
2019-02-24T10:35:08.955Z,26.59
2019-02-24T10:39:13.716Z,24.29
2019-02-24T10:46:48.351Z,25.63
2019-02-24T10:50:33.429Z,26.07
2019-02-24T10:54:08.813Z,25.34
2019-02-24T10:57:51.429Z,24.77
2019-02-24T11:01:29.909Z,25.22
2019-02-24T11:05:11.985Z,23.58
2019-02-24T11:08:47.475Z,23.46
2019-02-24T11:12:30.195Z,23.46
2019-02-24T11:16:05.706Z,24.78
2019-02-24T11:19:41.588Z,24.76
2019-02-24T11:23:24.623Z,25.24
2019-02-24T11:27:00.099Z,25.64
2019-02-24T11:30:35.568Z,24.79
2019-02-24T11:34:18.626Z,25.38
2019-02-24T11:37:54.969Z,26.04
2019-02-24T11:41:31.267Z,26.64
2019-02-24T11:45:14.411Z,26.44
2019-02-24T11:48:50.604Z,26.96
2019-02-24T11:52:33.241Z,28.38
2019-02-24T11:56:09.255Z,27.18
2019-02-24T11:59:44.628Z,27.57
2019-02-24T12:03:27.264Z,26.96
2019-02-24T12:07:03.464Z,27.15
2019-02-24T12:10:39.434Z,26.16
2019-02-24T12:14:22.109Z,25.19
2019-02-24T12:17:58.099Z,24.89
2019-02-24T12:21:34.474Z,24.79
2019-02-24T12:25:10.254Z,25.15
2019-02-24T12:28:53.084Z,25.77
2019-02-24T12:32:28.299Z,26.80
2019-02-24T12:36:33.023Z,27.97
2019-02-24T12:40:08.424Z,29.83
2019-02-24T12:43:51.535Z,29.76
2019-02-24T12:47:27.669Z,30.22
2019-02-24T12:51:10.507Z,31.09
2019-02-24T12:54:45.966Z,31.51
2019-02-24T12:58:28.560Z,29.24
2019-02-24T13:02:07.346Z,30.79
2019-02-24T13:05:50.329Z,32.05
2019-02-24T13:09:25.887Z,32.52
2019-02-24T13:13:08.488Z,31.47
2019-02-24T13:16:43.824Z,33.64
2019-02-24T13:20:19.494Z,33.78
2019-02-24T13:23:56.816Z,34.55
2019-02-24T13:27:39.446Z,33.90
2019-02-24T13:31:15.184Z,33.61
2019-02-24T13:34:57.763Z,34.13
2019-02-24T13:38:33.302Z,33.48
2019-02-24T13:42:16.839Z,34.71
2019-02-24T13:45:52.792Z,32.65
2019-02-24T13:49:35.672Z,33.42
2019-02-24T13:53:11.466Z,33.66
2019-02-24T13:56:54.331Z,32.99
2019-02-24T14:00:29.977Z,33.10
2019-02-24T14:04:12.602Z,33.47
2019-02-24T14:07:36.051Z,31.64
2019-02-24T14:11:11.925Z,32.39
2019-02-24T14:14:54.433Z,33.50
2019-02-24T14:18:30.470Z,32.21
2019-02-24T14:22:13.032Z,33.09
2019-02-24T14:25:49.549Z,33.39
2019-02-24T14:29:32.122Z,32.00
2019-02-24T14:33:07.898Z,31.34
2019-02-24T14:36:50.575Z,35.00
2019-02-24T14:40:26.276Z,34.71
2019-02-24T14:44:08.782Z,34.97
2019-02-24T14:47:44.921Z,32.02
2019-02-24T14:51:27.819Z,31.92
2019-02-24T14:55:03.925Z,32.50
2019-02-24T14:58:46.959Z,34.24
2019-02-24T15:02:22.920Z,34.66
2019-02-24T15:05:46.263Z,29.93
2019-02-24T15:09:09.733Z,30.71
2019-02-24T15:12:33.042Z,30.95
2019-02-24T15:15:56.173Z,30.04
2019-02-24T15:19:19.530Z,30.34
2019-02-24T15:22:42.861Z,30.36
2019-02-24T15:26:06.061Z,28.52
2019-02-24T15:29:29.173Z,29.95
2019-02-24T15:32:52.297Z,32.10
2019-02-24T15:36:15.418Z,31.22
2019-02-24T15:39:38.654Z,30.67
2019-02-24T15:43:01.839Z,32.79
2019-02-24T15:46:26.830Z,34.09
2019-02-24T15:49:50.212Z,33.74
2019-02-24T15:53:13.457Z,34.37
2019-02-24T15:56:36.623Z,36.02
2019-02-24T15:59:59.875Z,35.43
2019-02-24T16:03:23.028Z,34.84
2019-02-24T16:06:46.515Z,35.72
2019-02-24T16:10:13.057Z,35.96
2019-02-24T16:13:36.955Z,35.86
2019-02-24T16:17:00.107Z,34.44
2019-02-24T16:20:24.523Z,31.60
2019-02-24T16:23:48.072Z,29.43
2019-02-24T16:27:11.308Z,28.20
2019-02-24T16:30:34.541Z,26.61
2019-02-24T16:33:57.928Z,25.14
2019-02-24T16:37:21.189Z,24.48
2019-02-24T16:40:44.467Z,23.57
2019-02-24T16:44:07.561Z,22.42
2019-02-24T16:47:31.288Z,21.88
2019-02-24T16:50:54.458Z,21.40
2019-02-24T16:54:17.599Z,20.99
2019-02-24T16:57:40.701Z,20.82
2019-02-24T17:01:04.003Z,20.27
2019-02-24T17:04:27.218Z,20.13
2019-02-24T17:07:50.437Z,20.05
2019-02-24T17:11:13.655Z,19.74
2019-02-24T17:14:36.994Z,19.22
2019-02-24T17:18:00.419Z,19.23
2019-02-24T17:21:23.516Z,18.79
2019-02-24T17:24:47.096Z,18.63
2019-02-24T17:28:10.343Z,18.31
2019-02-24T17:31:33.621Z,17.99
2019-02-24T17:34:57.120Z,17.93
2019-02-24T17:38:20.381Z,17.67
2019-02-24T17:41:43.577Z,17.43
2019-02-24T17:45:09.277Z,17.28
2019-02-24T17:48:33.433Z,17.33
2019-02-24T17:51:56.610Z,17.46
2019-02-24T17:55:19.860Z,16.97
2019-02-24T17:58:44.048Z,16.48
2019-02-24T18:02:07.597Z,16.54
2019-02-24T18:05:30.973Z,16.16
2019-02-24T18:08:57.895Z,16.20
2019-02-24T18:12:21.307Z,16.35
2019-02-24T18:15:44.439Z,16.30
2019-02-24T18:19:10.614Z,16.30
2019-02-24T18:22:37.204Z,16.10
2019-02-24T18:26:00.965Z,15.55
2019-02-24T18:29:25.451Z,15.19
2019-02-24T18:32:48.939Z,15.20
2019-02-24T18:36:12.254Z,15.08
2019-02-24T18:39:35.730Z,15.00
2019-02-24T18:43:01.046Z,15.06
2019-02-24T18:46:24.796Z,14.80
2019-02-24T18:49:48.246Z,15.04
2019-02-24T18:53:15.172Z,15.23
2019-02-24T18:56:38.624Z,15.32
2019-02-24T19:00:01.892Z,15.01
2019-02-24T19:03:26.773Z,14.76
2019-02-24T19:06:51.173Z,14.92
2019-02-24T19:10:15.636Z,14.74
2019-02-24T19:13:39.348Z,14.65
2019-02-24T19:17:02.768Z,14.04
2019-02-24T19:20:25.928Z,13.50
2019-02-24T19:23:49.321Z,13.66
2019-02-24T19:27:12.800Z,13.75
2019-02-24T19:30:36.001Z,13.53
2019-02-24T19:34:06.452Z,13.26
2019-02-24T19:37:24.859Z,12.99
2019-02-24T19:40:53.452Z,13.38
2019-02-24T19:44:16.571Z,13.10
2019-02-24T19:47:40.382Z,12.80
2019-02-24T19:51:03.662Z,12.77
2019-02-24T19:54:27.148Z,12.69
2019-02-24T19:57:53.142Z,12.47
2019-02-24T20:01:16.394Z,12.61
2019-02-24T20:04:39.897Z,12.70
2019-02-24T20:08:03.296Z,12.73
2019-02-24T20:11:26.756Z,12.32
2019-02-24T20:14:50.042Z,12.24
2019-02-24T20:18:13.314Z,12.15
2019-02-24T20:21:38.156Z,12.13
2019-02-24T20:25:01.415Z,12.29
2019-02-24T20:28:24.661Z,12.41
2019-02-24T20:31:47.834Z,12.29
2019-02-24T20:35:11.056Z,11.95
2019-02-24T20:38:34.306Z,12.05
2019-02-24T20:41:57.499Z,11.93
2019-02-24T20:45:22.964Z,12.09
2019-02-24T20:48:46.247Z,12.00
2019-02-24T20:52:09.605Z,12.08
2019-02-24T20:55:35.926Z,11.91
2019-02-24T20:58:59.201Z,11.82
2019-02-24T21:02:22.527Z,12.06
2019-02-24T21:05:45.973Z,12.49
2019-02-24T21:09:09.281Z,12.94
2019-02-24T21:12:32.489Z,12.80
2019-02-24T21:15:55.873Z,12.01
2019-02-24T21:19:19.350Z,11.59
2019-02-24T21:22:42.483Z,11.28
2019-02-24T21:26:05.591Z,11.44
2019-02-24T21:29:28.720Z,11.50
2019-02-24T21:32:51.968Z,11.27
2019-02-24T21:36:15.879Z,11.17
2019-02-24T21:39:39.065Z,11.19
2019-02-24T21:43:02.345Z,10.99
2019-02-24T21:46:25.448Z,11.04
2019-02-24T21:49:48.559Z,11.00
2019-02-24T21:53:11.671Z,10.89
2019-02-24T21:56:34.749Z,10.73
2019-02-24T21:59:58.247Z,10.95
2019-02-24T22:03:21.452Z,10.68
2019-02-24T22:06:44.846Z,10.56
2019-02-24T22:10:09.027Z,10.53
2019-02-24T22:13:32.473Z,10.29
2019-02-24T22:16:55.682Z,10.54
2019-02-24T22:20:19.097Z,10.33
2019-02-24T22:23:42.195Z,10.48
2019-02-24T22:27:05.301Z,10.45
2019-02-24T22:30:28.424Z,10.27
2019-02-24T22:33:51.509Z,10.13
2019-02-24T22:37:14.714Z,10.15
2019-02-24T22:40:37.805Z,10.12
2019-02-24T22:44:00.906Z,10.14
2019-02-24T22:47:24.031Z,10.15
2019-02-24T22:50:47.588Z,10.10
2019-02-24T22:54:11.066Z,9.92
2019-02-24T22:57:34.356Z,9.95
2019-02-24T23:01:07.304Z,9.99
2019-02-24T23:04:32.300Z,10.04
2019-02-24T23:07:56.445Z,9.89
2019-02-24T23:11:19.595Z,9.62
2019-02-24T23:14:43.834Z,9.73
2019-02-24T23:18:07.390Z,9.73
2019-02-24T23:21:30.616Z,9.59
2019-02-24T23:24:53.899Z,9.32
2019-02-24T23:28:17.193Z,9.11
2019-02-24T23:31:43.018Z,9.29
2019-02-24T23:35:06.403Z,9.22
2019-02-24T23:38:29.598Z,9.18
2019-02-24T23:41:52.860Z,8.82
2019-02-24T23:45:15.929Z,8.67
2019-02-24T23:48:39.056Z,8.77
2019-02-24T23:52:02.160Z,8.57
2019-02-24T23:55:25.262Z,8.72
2019-02-24T23:58:48.378Z,8.69
